Time;durP1;ratioP1;P1;durP2;ratioP2;P2;SDS_P1;SDS_P2;PMS_P1;PMS_P2;Temp;Humidity;BMP_temperature;BMP_pressure;BME280_temperature;BME280_humidity;BME280_pressure;Samples;Min_cycle;Max_cycle;Signal;HPM_P1;HPM_P2
2022/12/29 00:01:55;;;;;;;24.77;3.47;;;;;;;10.23;100.00;97536.63;5025877;28;20447;-53
2022/12/29 00:04:21;;;;;;;26.58;3.80;;;;;;;10.08;100.00;97545.41;5029715;28;20032;-53
2022/12/29 00:06:48;;;;;;;25.85;3.67;;;;;;;10.71;100.00;97543.97;5031149;28;20382;-53
2022/12/29 00:09:15;;;;;;;33.63;4.43;;;;;;;10.98;100.00;97536.72;5025999;28;20060;-55
2022/12/29 00:11:40;;;;;;;26.75;3.83;;;;;;;10.87;100.00;97536.00;5029863;28;20093;-53
2022/12/29 00:16:52;;;;;;;18.88;3.20;;;;;;;11.84;100.00;97540.78;5025237;28;20137;-57
2022/12/29 00:36:08;;;;;;;36.28;4.55;;;;;;;10.48;100.00;97526.00;5027634;28;20040;-54
2022/12/29 00:44:10;;;;;;;23.42;3.50;;;;;;;11.83;100.00;97512.97;5025889;28;20041;-55
2022/12/29 00:46:41;;;;;;;25.65;4.03;;;;;;;10.79;100.00;97518.75;5026489;28;20118;-54
2022/12/29 00:51:53;;;;;;;27.98;4.18;;;;;;;11.61;100.00;97515.91;5027649;28;20556;-54
2022/12/29 00:54:19;;;;;;;17.45;2.80;;;;;;;11.22;100.00;97502.59;5027620;28;20033;-54
2022/12/29 00:56:49;;;;;;;24.52;3.80;;;;;;;11.67;100.00;97518.44;5027473;28;20048;-55
2022/12/29 00:59:15;;;;;;;22.50;3.45;;;;;;;11.49;100.00;97509.16;5027230;28;20025;-55
2022/12/29 01:01:41;;;;;;;28.63;4.07;;;;;;;11.31;100.00;97503.31;5025547;28;20049;-55
2022/12/29 01:04:08;;;;;;;24.60;3.65;;;;;;;10.99;100.00;97507.22;5028798;28;20044;-55
2022/12/29 01:06:34;;;;;;;36.28;4.53;;;;;;;11.75;100.00;97505.28;5026204;28;20037;-53
2022/12/29 01:11:44;;;;;;;24.95;3.65;;;;;;;11.67;100.00;97492.38;5025639;28;20049;-55
2022/12/29 01:14:09;;;;;;;23.02;3.92;;;;;;;10.90;100.00;97502.13;5026738;28;20028;-55
2022/12/29 01:16:36;;;;;;;19.35;3.08;;;;;;;10.55;100.00;97504.28;5025168;28;20034;-54
2022/12/29 01:19:03;;;;;;;29.25;3.83;;;;;;;10.65;100.00;97499.84;5025641;28;20673;-53
2022/12/29 01:21:28;;;;;;;24.45;3.35;;;;;;;11.61;100.00;97504.66;5027762;28;20048;-53
2022/12/29 01:23:53;;;;;;;21.27;3.28;;;;;;;11.24;100.00;97496.47;5027780;28;20025;-58
2022/12/29 01:26:19;;;;;;;16.83;2.85;;;;;;;10.91;100.00;97490.88;5025046;28;20053;-56
2022/12/29 01:28:44;;;;;;;30.73;4.25;;;;;;;10.93;100.00;97496.88;5026022;28;20030;-56
2022/12/29 01:31:12;;;;;;;28.88;4.13;;;;;;;11.58;100.00;97498.59;5025639;28;20040;-55
2022/12/29 01:33:38;;;;;;;27.88;3.67;;;;;;;11.27;100.00;97486.03;5026432;28;20022;-54
2022/12/29 01:36:06;;;;;;;27.30;3.88;;;;;;;10.93;100.00;97478.69;5024813;28;20064;-55
2022/12/29 01:38:33;;;;;;;26.60;3.90;;;;;;;11.76;100.00;97487.91;5026834;28;20060;-54
2022/12/29 01:40:58;;;;;;;20.95;3.50;;;;;;;11.85;100.00;97488.59;5025764;28;20041;-54
2022/12/29 01:43:49;;;;;;;27.17;3.90;;;;;;;11.75;100.00;97481.84;5025044;28;20029;-57
2022/12/29 01:46:30;;;;;;;21.20;3.60;;;;;;;12.10;100.00;97474.34;5025122;28;20045;-54
2022/12/29 01:49:08;;;;;;;31.33;4.40;;;;;;;12.34;100.00;97473.03;5029721;28;20059;-57
2022/12/29 01:51:53;;;;;;;21.17;3.50;;;;;;;11.66;100.00;97476.78;5024593;28;20643;-55
2022/12/29 01:54:27;;;;;;;31.15;4.60;;;;;;;11.71;100.00;97468.00;5025521;28;20033;-56
2022/12/29 01:56:56;;;;;;;19.50;3.10;;;;;;;12.43;100.00;97461.56;5025097;28;20064;-57
2022/12/29 01:59:32;;;;;;;24.08;3.88;;;;;;;11.85;100.00;97457.34;5024970;28;20060;-56
2022/12/29 02:15:00;;;;;;;168.13;16.73;;;;;;;11.48;100.00;97433.66;5987771;23;20012;-54
2022/12/29 02:57:01;;;;;;;131.40;13.15;;;;;;;11.11;100.00;97424.66;5902621;22;21519;-55
2022/12/29 03:02:20;;;;;;;17.05;3.17;;;;;;;11.55;100.00;97417.88;4976045;22;20046;-55
2022/12/29 03:04:57;;;;;;;22.45;3.72;;;;;;;11.72;100.00;97417.63;4996179;28;20098;-55
2022/12/29 03:07:51;;;;;;;21.02;3.65;;;;;;;11.64;100.00;97408.22;4992627;28;20038;-56
2022/12/29 03:10:28;;;;;;;19.23;3.28;;;;;;;11.74;100.00;97414.13;4993888;28;20022;-53
2022/12/29 03:16:05;;;;;;;37.53;5.22;;;;;;;11.99;100.00;97414.53;4993401;28;20383;-54
2022/12/29 03:18:53;;;;;;;21.20;3.70;;;;;;;11.55;100.00;97404.88;4998857;28;20017;-52
2022/12/29 03:24:36;;;;;;;22.88;3.95;;;;;;;11.37;100.00;97400.84;4998330;28;20032;-55
2022/12/29 03:27:05;;;;;;;29.13;4.40;;;;;;;12.32;100.00;97404.41;4995598;28;20611;-56
2022/12/29 03:29:34;;;;;;;23.70;4.03;;;;;;;12.30;100.00;97414.00;4992155;28;20022;-55
2022/12/29 03:32:02;;;;;;;25.50;4.13;;;;;;;12.19;100.00;97406.41;4992396;28;20048;-56
2022/12/29 03:34:28;;;;;;;15.60;3.03;;;;;;;11.37;100.00;97403.44;5001184;28;20024;-55
2022/12/29 03:37:10;;;;;;;20.77;3.70;;;;;;;11.95;100.00;97405.09;5000736;28;20616;-55
2022/12/29 03:39:36;;;;;;;28.35;4.60;;;;;;;12.29;100.00;97404.44;5001495;28;20026;-55
2022/12/29 03:42:11;;;;;;;31.83;4.75;;;;;;;11.98;100.00;97395.44;4997664;28;20046;-56
2022/12/29 03:44:39;;;;;;;17.45;3.40;;;;;;;11.82;100.00;97402.69;4995444;28;20013;-54
2022/12/29 03:47:05;;;;;;;28.10;4.30;;;;;;;12.15;100.00;97401.25;4995386;28;20671;-56
2022/12/29 03:49:31;;;;;;;18.88;3.35;;;;;;;11.83;100.00;97390.50;4997643;28;20034;-55
2022/12/29 03:51:56;;;;;;;18.60;3.40;;;;;;;12.57;100.00;97393.47;4997615;28;20549;-55
2022/12/29 03:54:23;;;;;;;16.50;3.22;;;;;;;11.97;100.00;97385.06;5001198;28;20033;-55
2022/12/29 03:56:48;;;;;;;18.60;2.95;;;;;;;11.75;100.00;97389.78;4996323;28;20538;-55
2022/12/29 03:59:13;;;;;;;18.48;3.50;;;;;;;12.19;100.00;97389.88;4999676;28;20048;-57
2022/12/29 04:01:39;;;;;;;19.52;3.42;;;;;;;12.32;100.00;97393.13;4999792;28;20125;-55
2022/12/29 04:04:04;;;;;;;18.92;3.60;;;;;;;12.37;100.00;97404.31;5001679;28;20057;-56
2022/12/29 04:06:29;;;;;;;20.92;3.53;;;;;;;12.22;100.00;97402.88;5000943;28;20053;-54
2022/12/29 04:08:55;;;;;;;19.60;3.55;;;;;;;12.41;100.00;97407.72;5000364;28;20034;-55
2022/12/29 04:11:21;;;;;;;20.77;3.50;;;;;;;12.91;100.00;97399.69;4998186;28;20665;-56
2022/12/29 04:13:46;;;;;;;14.70;3.20;;;;;;;12.44;100.00;97397.22;5001167;28;20037;-56
2022/12/29 04:16:12;;;;;;;17.40;3.20;;;;;;;12.22;100.00;97395.88;4999074;28;20034;-55
2022/12/29 04:18:37;;;;;;;24.52;4.18;;;;;;;12.39;100.00;97404.28;4999351;28;20530;-56
2022/12/29 04:21:03;;;;;;;20.00;3.33;;;;;;;12.85;100.00;97394.63;4999620;28;20050;-56
2022/12/29 04:23:32;;;;;;;21.23;3.67;;;;;;;12.21;100.00;97396.78;4979122;28;20064;-54
2022/12/29 04:25:57;;;;;;;19.95;3.85;;;;;;;12.45;100.00;97397.19;4996379;28;20510;-55
2022/12/29 04:28:23;;;;;;;22.55;3.88;;;;;;;12.05;100.00;97395.31;4998001;28;20026;-53
2022/12/29 04:30:49;;;;;;;20.98;3.70;;;;;;;12.85;100.00;97405.91;4998992;28;20097;-54
2022/12/29 04:33:14;;;;;;;18.73;3.20;;;;;;;12.39;100.00;97396.47;5000220;28;20030;-55
2022/12/29 04:35:40;;;;;;;26.38;4.38;;;;;;;11.76;100.00;97397.56;4998184;28;20036;-56
2022/12/29 04:38:05;;;;;;;18.73;3.22;;;;;;;12.09;100.00;97397.88;5000823;28;20029;-56
2022/12/29 04:40:30;;;;;;;21.77;3.65;;;;;;;12.28;100.00;97401.91;4996910;28;20033;-54
2022/12/29 04:42:56;;;;;;;21.05;3.50;;;;;;;12.24;100.00;97404.56;4980944;28;20029;-54
2022/12/29 04:45:21;;;;;;;18.23;3.30;;;;;;;12.67;100.00;97398.47;4995828;28;20773;-54
2022/12/29 04:47:47;;;;;;;20.08;3.60;;;;;;;12.09;100.00;97403.09;4995754;28;20014;-54
2022/12/29 04:50:12;;;;;;;17.40;3.10;;;;;;;12.10;100.00;97397.00;4997825;28;20045;-54
2022/12/29 04:52:38;;;;;;;19.38;3.35;;;;;;;12.70;100.00;97395.81;4996024;28;20037;-55
2022/12/29 04:55:05;;;;;;;20.58;3.45;;;;;;;12.50;100.00;97397.94;4993641;28;20029;-55
2022/12/29 04:57:30;;;;;;;23.75;3.67;;;;;;;12.00;100.00;97390.22;4995908;28;20128;-56
2022/12/29 04:59:56;;;;;;;24.17;3.78;;;;;;;11.62;100.00;97389.16;4987220;28;20168;-55
2022/12/29 05:02:22;;;;;;;18.52;3.22;;;;;;;12.26;100.00;97386.28;5000357;28;20053;-57
2022/12/29 05:04:47;;;;;;;15.68;2.92;;;;;;;12.22;100.00;97382.00;4999670;28;20022;-55
2022/12/29 05:07:13;;;;;;;18.95;3.35;;;;;;;12.65;100.00;97388.06;4999033;28;20046;-54
2022/12/29 05:09:39;;;;;;;27.55;4.57;;;;;;;12.49;100.00;97395.38;4997364;28;20104;-55
2022/12/29 05:12:04;;;;;;;25.63;3.85;;;;;;;12.47;100.00;97384.97;4993537;28;20512;-55
2022/12/29 05:14:30;;;;;;;18.52;3.38;;;;;;;12.28;100.00;97386.25;4998531;28;20029;-54
2022/12/29 05:16:55;;;;;;;19.65;3.28;;;;;;;12.42;100.00;97392.03;5000149;28;20122;-54
2022/12/29 05:19:21;;;;;;;17.13;3.17;;;;;;;12.09;100.00;97390.06;4987678;28;20022;-55
2022/12/29 05:21:46;;;;;;;18.50;3.40;;;;;;;12.20;100.00;97387.25;4997893;28;20069;-54
2022/12/29 05:24:11;;;;;;;23.17;3.78;;;;;;;12.56;100.00;97403.94;4995626;28;20061;-56
2022/12/29 05:26:37;;;;;;;19.30;3.35;;;;;;;12.68;100.00;97398.47;4997350;28;20061;-55
2022/12/29 05:29:02;;;;;;;26.00;3.90;;;;;;;12.61;100.00;97400.34;4995167;28;20017;-54
2022/12/29 05:31:28;;;;;;;18.77;3.20;;;;;;;12.54;100.00;97390.91;4999334;28;20038;-55
2022/12/29 05:33:53;;;;;;;17.13;3.17;;;;;;;12.93;100.00;97400.53;4999016;28;20041;-55
2022/12/29 05:36:19;;;;;;;26.17;4.18;;;;;;;12.15;100.00;97394.31;4991576;28;20689;-55
2022/12/29 05:38:45;;;;;;;22.08;3.72;;;;;;;12.69;100.00;97399.31;4995417;28;20037;-54
2022/12/29 05:41:10;;;;;;;29.35;4.30;;;;;;;13.61;100.00;97400.72;4995499;28;20040;-54
2022/12/29 05:43:35;;;;;;;19.58;3.40;;;;;;;12.41;100.00;97392.94;4999118;28;20014;-57
2022/12/29 05:46:02;;;;;;;22.20;3.75;;;;;;;12.59;100.00;97386.44;4994000;28;20403;-57
2022/12/29 05:48:27;;;;;;;25.60;3.92;;;;;;;12.97;100.00;97383.03;4994991;28;20573;-56
2022/12/29 05:50:53;;;;;;;19.48;3.25;;;;;;;12.76;100.00;97390.44;4991312;28;20752;-56
2022/12/29 05:53:18;;;;;;;25.52;3.92;;;;;;;12.55;100.00;97383.97;4995168;28;20779;-54
2022/12/29 05:55:46;;;;;;;22.25;3.63;;;;;;;12.36;100.00;97381.75;4999170;28;20664;-54
2022/12/29 05:58:12;;;;;;;18.25;3.33;;;;;;;12.24;100.00;97394.13;4995806;28;20034;-57
2022/12/29 06:00:37;;;;;;;23.20;3.60;;;;;;;11.94;100.00;97391.19;4992908;28;20062;-55
2022/12/29 06:03:03;;;;;;;17.02;2.88;;;;;;;12.03;100.00;97395.34;4991077;28;20336;-57
2022/12/29 06:05:29;;;;;;;24.88;4.00;;;;;;;11.24;100.00;97389.75;4995314;28;20030;-57
2022/12/29 06:07:54;;;;;;;19.90;3.25;;;;;;;11.78;100.00;97401.03;4993952;28;20373;-56
2022/12/29 06:10:20;;;;;;;14.88;3.00;;;;;;;11.31;100.00;97407.00;4997139;28;20029;-55
2022/12/29 06:12:46;;;;;;;26.00;4.00;;;;;;;12.06;100.00;97405.75;4996488;28;20025;-57
2022/12/29 06:15:11;;;;;;;17.55;3.28;;;;;;;12.40;100.00;97404.22;4995337;28;20037;-56
2022/12/29 06:17:36;;;;;;;32.88;4.60;;;;;;;11.77;100.00;97401.91;4997884;28;20129;-56
2022/12/29 06:20:02;;;;;;;23.33;3.55;;;;;;;12.43;100.00;97406.78;4991275;28;21044;-55
2022/12/29 06:22:28;;;;;;;21.38;3.60;;;;;;;11.30;100.00;97400.09;4997379;28;20257;-55
2022/12/29 06:24:53;;;;;;;25.27;4.25;;;;;;;11.57;100.00;97400.50;4997597;28;20693;-55
2022/12/29 06:27:19;;;;;;;18.42;3.38;;;;;;;11.51;100.00;97400.59;4979063;28;20137;-55
2022/12/29 06:29:44;;;;;;;33.95;4.90;;;;;;;11.04;100.00;97403.06;4994640;28;20029;-55
2022/12/29 06:32:09;;;;;;;14.85;2.88;;;;;;;11.24;100.00;97397.56;4998659;28;20763;-55
2022/12/29 06:34:35;;;;;;;21.98;3.60;;;;;;;10.91;100.00;97392.00;4995865;28;20060;-55
2022/12/29 06:37:01;;;;;;;24.10;3.80;;;;;;;11.66;100.00;97403.84;4998055;28;20049;-55
2022/12/29 06:39:26;;;;;;;22.77;3.72;;;;;;;11.38;100.00;97399.94;4996154;28;20103;-54
2022/12/29 06:41:53;;;;;;;25.55;4.05;;;;;;;11.30;100.00;97384.47;4987337;28;20034;-54
2022/12/29 06:44:20;;;;;;;25.63;3.90;;;;;;;11.09;100.00;97398.66;4999303;28;20017;-57
2022/12/29 06:46:46;;;;;;;19.25;3.15;;;;;;;11.04;100.00;97393.53;4997321;28;20042;-55
2022/12/29 06:49:11;;;;;;;21.33;3.50;;;;;;;10.91;100.00;97389.41;4997582;28;20053;-55
2022/12/29 06:51:36;;;;;;;20.17;3.40;;;;;;;11.58;100.00;97399.63;4993850;28;20030;-54
2022/12/29 06:54:02;;;;;;;25.38;3.85;;;;;;;11.23;100.00;97401.06;4996164;28;20018;-55
2022/12/29 06:56:27;;;;;;;18.52;3.20;;;;;;;11.07;100.00;97405.63;4997382;28;20458;-55
2022/12/29 06:58:52;;;;;;;21.33;3.25;;;;;;;11.79;100.00;97418.38;4993748;28;20530;-55
2022/12/29 07:01:18;;;;;;;21.13;3.65;;;;;;;12.07;100.00;97411.84;4992515;28;20049;-54
2022/12/29 07:03:43;;;;;;;14.32;3.00;;;;;;;11.80;100.00;97427.06;4997492;28;20042;-55
2022/12/29 07:06:09;;;;;;;24.77;3.97;;;;;;;11.72;100.00;97424.56;4994400;28;20157;-56
2022/12/29 07:08:34;;;;;;;19.77;3.42;;;;;;;11.64;100.00;97413.41;4994134;28;20030;-55
2022/12/29 07:10:59;;;;;;;22.38;3.80;;;;;;;12.45;100.00;97409.38;4998505;28;20069;-55
2022/12/29 07:13:25;;;;;;;27.05;4.07;;;;;;;11.29;100.00;97407.91;5001132;28;20665;-55
2022/12/29 07:15:50;;;;;;;23.05;3.83;;;;;;;10.57;100.00;97424.50;4997742;28;20062;-55
2022/12/29 07:18:16;;;;;;;26.00;4.05;;;;;;;10.41;100.00;97424.66;4999159;28;20064;-56
2022/12/29 07:20:41;;;;;;;25.27;4.20;;;;;;;11.12;100.00;97424.66;4997037;28;20037;-57
2022/12/29 07:23:06;;;;;;;18.58;3.58;;;;;;;11.17;100.00;97421.97;4996559;28;20029;-55
2022/12/29 07:25:32;;;;;;;29.40;4.32;;;;;;;10.36;100.00;97413.44;4993883;28;20132;-55
2022/12/29 07:27:57;;;;;;;23.00;3.92;;;;;;;10.20;100.00;97414.53;4996503;28;20037;-55
2022/12/29 07:30:23;;;;;;;28.77;4.35;;;;;;;10.24;100.00;97424.00;4995872;28;20021;-56
2022/12/29 07:32:48;;;;;;;23.40;3.90;;;;;;;10.42;100.00;97428.13;4999010;28;20056;-54
2022/12/29 07:35:13;;;;;;;25.30;3.90;;;;;;;10.20;100.00;97425.75;5002863;28;20025;-54
2022/12/29 07:37:39;;;;;;;24.08;3.97;;;;;;;10.29;100.00;97424.81;5000559;28;20354;-58
2022/12/29 07:40:05;;;;;;;24.42;4.13;;;;;;;10.68;100.00;97440.84;5000064;28;20078;-53
2022/12/29 07:42:31;;;;;;;33.58;4.93;;;;;;;10.28;100.00;97434.34;4998234;28;20064;-54
2022/12/29 07:44:56;;;;;;;27.48;4.43;;;;;;;11.04;100.00;97445.56;4997819;28;20081;-54
2022/12/29 07:47:21;;;;;;;20.42;3.80;;;;;;;10.81;100.00;97430.28;4994910;28;20041;-54
2022/12/29 07:49:47;;;;;;;39.90;5.70;;;;;;;10.91;100.00;97426.66;4998260;28;20600;-53
2022/12/29 07:52:12;;;;;;;29.00;4.50;;;;;;;9.93;95.44;97427.78;4996569;28;20034;-54
2022/12/29 07:54:38;;;;;;;34.58;5.28;;;;;;;10.11;95.88;97431.06;4996240;28;20024;-53
2022/12/29 07:57:04;;;;;;;29.80;4.78;;;;;;;9.83;94.62;97439.97;4996950;28;20576;-54
2022/12/29 07:59:30;;;;;;;38.10;4.70;;;;;;;10.57;96.97;97441.88;5000192;28;20250;-54
2022/12/29 08:01:55;;;;;;;34.28;5.15;;;;;;;10.82;97.86;97439.78;4995995;28;20778;-56
2022/12/29 08:04:21;;;;;;;33.75;4.68;;;;;;;10.49;93.00;97437.59;4999311;28;20052;-59
2022/12/29 08:06:46;;;;;;;27.98;4.45;;;;;;;10.79;84.75;97440.69;4998325;28;20095;-56
2022/12/29 08:09:12;;;;;;;37.30;4.18;;;;;;;10.49;63.32;97441.94;4997322;28;20030;-55
2022/12/29 08:11:38;;;;;;;22.23;3.63;;;;;;;11.49;75.42;97433.63;4991265;28;20065;-55
2022/12/29 08:14:03;;;;;;;31.38;4.85;;;;;;;11.69;63.98;97424.66;4996351;28;20064;-54
2022/12/29 08:16:29;;;;;;;31.42;4.57;;;;;;;11.46;75.32;97426.72;4997631;28;20049;-54
2022/12/29 08:18:54;;;;;;;29.80;4.63;;;;;;;11.48;66.87;97418.91;4996122;28;20026;-55
2022/12/29 08:21:19;;;;;;;29.75;4.38;;;;;;;11.70;76.43;97429.78;4996942;28;20034;-55
2022/12/29 08:23:45;;;;;;;30.38;4.70;;;;;;;11.96;78.74;97432.84;5000353;28;20582;-55
2022/12/29 08:26:11;;;;;;;33.80;5.20;;;;;;;12.15;69.06;97432.53;4997004;28;20030;-56
2022/12/29 08:28:36;;;;;;;27.25;4.10;;;;;;;11.95;73.70;97424.16;5001165;28;20040;-56
2022/12/29 08:31:02;;;;;;;35.63;4.88;;;;;;;11.37;64.59;97439.03;4996342;28;20034;-56
2022/12/29 08:33:28;;;;;;;26.30;4.30;;;;;;;11.16;65.02;97441.06;4998878;28;20033;-55
2022/12/29 08:36:05;;;;;;;32.28;4.80;;;;;;;11.84;68.41;97436.53;4999296;28;20038;-55
2022/12/29 08:38:31;;;;;;;22.83;3.92;;;;;;;11.53;64.67;97430.09;4998798;28;20041;-55
2022/12/29 08:40:57;;;;;;;28.83;4.63;;;;;;;11.63;64.27;97429.94;4996419;28;20033;-55
2022/12/29 08:43:23;;;;;;;24.88;4.30;;;;;;;12.47;84.69;97431.06;4996361;28;20040;-55
2022/12/29 08:45:49;;;;;;;19.98;3.70;;;;;;;12.62;69.53;97435.97;4996730;28;20053;-56
2022/12/29 08:48:18;;;;;;;29.00;4.32;;;;;;;12.18;65.62;97433.34;4997623;28;20030;-56
2022/12/29 08:50:44;;;;;;;16.35;3.15;;;;;;;12.33;65.55;97424.34;4996401;28;20045;-57
2022/12/29 08:53:09;;;;;;;17.40;3.35;;;;;;;12.24;66.53;97419.31;4996801;28;20772;-57
2022/12/29 08:55:35;;;;;;;17.65;2.88;;;;;;;12.44;61.08;97445.00;4995388;28;20038;-56
2022/12/29 08:58:00;;;;;;;22.42;3.72;;;;;;;12.92;62.57;97432.72;4994087;28;21161;-56
2022/12/29 09:00:26;;;;;;;21.30;3.63;;;;;;;13.18;65.45;97425.22;4994436;28;20034;-58
2022/12/29 09:02:51;;;;;;;20.17;3.33;;;;;;;12.58;58.28;97428.25;4998678;28;20093;-58
2022/12/29 09:05:16;;;;;;;20.35;3.47;;;;;;;13.11;58.08;97424.50;4999310;28;20026;-58
2022/12/29 09:07:42;;;;;;;21.90;3.50;;;;;;;12.96;59.15;97425.72;5000009;28;20029;-58
2022/12/29 09:10:08;;;;;;;24.30;3.58;;;;;;;13.09;58.72;97414.09;4996516;28;20056;-54
2022/12/29 09:12:33;;;;;;;23.33;3.97;;;;;;;13.15;59.45;97420.94;4998876;28;20072;-56
2022/12/29 09:14:58;;;;;;;24.63;3.95;;;;;;;13.95;71.46;97430.34;5000462;28;20040;-54
2022/12/29 09:20:09;;;;;;;25.30;4.07;;;;;;;14.11;64.00;97420.31;4999720;28;20066;-54
2022/12/29 09:22:35;;;;;;;28.25;4.55;;;;;;;13.43;55.72;97422.88;4996141;28;20431;-54
2022/12/29 09:25:01;;;;;;;21.73;3.63;;;;;;;13.96;58.27;97423.38;5003798;28;20040;-56
2022/12/29 09:27:26;;;;;;;21.20;3.50;;;;;;;13.89;54.59;97420.91;4999091;28;20050;-55
2022/12/29 09:29:52;;;;;;;29.70;4.50;;;;;;;14.21;56.95;97427.94;5000149;28;20083;-56
2022/12/29 09:32:17;;;;;;;17.98;3.17;;;;;;;14.23;54.69;97426.13;4998378;28;20089;-55
2022/12/29 09:34:42;;;;;;;24.63;3.88;;;;;;;14.54;58.44;97412.19;5001070;28;20036;-55
2022/12/29 09:37:08;;;;;;;23.20;3.47;;;;;;;14.08;55.82;97433.50;5004011;28;20038;-55
2022/12/29 09:39:33;;;;;;;25.20;4.05;;;;;;;14.30;58.09;97427.69;4996597;28;20059;-55
2022/12/29 09:42:12;;;;;;;22.35;3.75;;;;;;;14.18;51.51;97416.66;4999326;28;20053;-56
2022/12/29 09:44:55;;;;;;;21.13;3.53;;;;;;;14.28;51.27;97422.50;4997551;28;20129;-55
2022/12/29 09:47:23;;;;;;;17.55;3.33;;;;;;;14.02;55.24;97421.44;4996477;28;20041;-56
2022/12/29 09:50:01;;;;;;;35.22;5.25;;;;;;;14.11;52.55;97417.72;4996683;28;20022;-55
2022/12/29 09:52:34;;;;;;;26.40;4.28;;;;;;;13.40;53.74;97422.97;4998537;28;20146;-56
2022/12/29 09:55:11;;;;;;;25.90;4.20;;;;;;;13.72;55.33;97412.63;5001998;28;20030;-56
2022/12/29 09:57:48;;;;;;;24.08;4.05;;;;;;;13.56;55.32;97414.78;4998192;28;20042;-55
2022/12/29 10:00:16;;;;;;;19.25;3.55;;;;;;;13.24;60.63;97412.00;4998802;28;20037;-56
2022/12/29 10:03:05;;;;;;;23.00;3.58;;;;;;;13.16;53.90;97417.41;5000378;28;20029;-56
2022/12/29 10:05:56;;;;;;;25.92;4.25;;;;;;;13.14;53.42;97408.78;4997644;28;20041;-56
2022/12/29 10:08:58;;;;;;;22.58;3.63;;;;;;;13.45;54.54;97410.66;5000557;28;20683;-55
2022/12/29 10:11:42;;;;;;;19.42;3.53;;;;;;;13.14;56.01;97422.66;4967297;28;20042;-56
2022/12/29 10:14:32;;;;;;;22.52;3.85;;;;;;;13.31;55.25;97400.53;5003478;28;20055;-56
2022/12/29 10:17:16;;;;;;;25.88;4.13;;;;;;;13.71;57.06;97411.78;4998357;28;20045;-57
2022/12/29 10:19:44;;;;;;;38.47;5.03;;;;;;;13.24;55.48;97412.00;5000454;28;20033;-56
2022/12/29 10:22:37;;;;;;;25.08;4.03;;;;;;;13.23;55.43;97407.69;4997386;28;20058;-56
2022/12/29 10:25:14;;;;;;;23.42;3.90;;;;;;;13.63;58.58;97409.34;4998362;28;20502;-57
2022/12/29 10:27:41;;;;;;;27.63;4.05;;;;;;;13.13;55.29;97401.81;4999111;28;20034;-56
2022/12/29 10:30:13;;;;;;;19.50;3.53;;;;;;;13.44;61.37;97387.19;5000946;28;20034;-56
2022/12/29 10:32:40;;;;;;;23.38;4.20;;;;;;;13.31;57.31;97397.91;4999254;28;20038;-56
2022/12/29 10:35:19;;;;;;;25.35;4.00;;;;;;;13.12;58.82;97397.50;5000648;28;20037;-55
2022/12/29 10:38:04;;;;;;;26.50;3.97;;;;;;;13.04;56.65;97389.84;4998426;28;20026;-57
2022/12/29 10:40:40;;;;;;;27.05;5.13;;;;;;;13.53;61.90;97385.25;4994898;28;20109;-57
2022/12/29 10:43:26;;;;;;;24.50;4.20;;;;;;;13.31;56.70;97382.25;5001258;28;20079;-56
2022/12/29 10:46:19;;;;;;;21.08;3.78;;;;;;;13.24;59.04;97378.06;4992041;28;20041;-57
2022/12/29 10:48:46;;;;;;;22.33;3.47;;;;;;;13.17;55.31;97379.13;4995541;28;20034;-57
2022/12/29 10:51:20;;;;;;;20.83;3.60;;;;;;;13.12;63.36;97379.22;4994128;28;20038;-56
2022/12/29 10:53:50;;;;;;;22.85;3.65;;;;;;;12.77;57.40;97381.75;4998130;28;20960;-56
2022/12/29 10:56:27;;;;;;;30.33;4.80;;;;;;;12.85;57.59;97376.34;4996872;28;20277;-58
2022/12/29 10:58:56;;;;;;;20.02;3.47;;;;;;;13.15;58.19;97364.34;5001533;28;20052;-56
2022/12/29 11:01:30;;;;;;;24.85;4.18;;;;;;;12.94;57.43;97372.66;5000881;28;20046;-56
2022/12/29 11:04:28;;;;;;;23.52;4.15;;;;;;;13.28;60.06;97367.53;5002552;28;20025;-56
2022/12/29 11:06:54;;;;;;;24.05;4.45;;;;;;;13.66;59.68;97366.63;4997487;28;20097;-56
2022/12/29 11:09:27;;;;;;;20.67;3.45;;;;;;;13.68;57.96;97357.00;4986633;28;20034;-56
2022/12/29 11:11:53;;;;;;;26.58;4.32;;;;;;;13.75;63.36;97355.06;4980105;28;20039;-56
2022/12/29 11:14:21;;;;;;;22.27;3.65;;;;;;;13.64;57.92;97357.97;4996148;28;20101;-58
2022/12/29 11:16:57;;;;;;;21.65;4.13;;;;;;;13.82;57.01;97366.22;4998467;28;20037;-56
2022/12/29 11:19:26;;;;;;;24.75;4.32;;;;;;;13.72;59.30;97350.78;5004697;28;20482;-57
2022/12/29 11:21:52;;;;;;;21.65;3.75;;;;;;;13.80;59.04;97354.06;4992811;28;20044;-56
2022/12/29 11:24:24;;;;;;;19.23;3.30;;;;;;;14.10;63.79;97361.09;4986027;28;20533;-58
2022/12/29 11:27:08;;;;;;;22.58;4.22;;;;;;;14.38;55.32;97370.78;4999082;28;20050;-56
2022/12/29 11:29:42;;;;;;;21.70;4.03;;;;;;;14.32;53.98;97361.34;4996452;28;20033;-56
2022/12/29 11:32:29;;;;;;;24.15;4.07;;;;;;;14.38;53.27;97369.91;4994724;28;20050;-56
2022/12/29 11:34:55;;;;;;;23.73;4.40;;;;;;;14.65;53.82;97370.88;4999354;28;20037;-55
2022/12/29 11:37:27;;;;;;;28.38;4.60;;;;;;;13.77;54.40;97368.97;4998860;28;20546;-57
2022/12/29 11:39:58;;;;;;;27.23;4.33;;;;;;;14.28;54.61;97375.41;4996314;28;20526;-55
2022/12/29 11:42:32;;;;;;;25.80;4.03;;;;;;;14.12;55.90;97371.50;4996911;28;20053;-56
2022/12/29 11:45:05;;;;;;;19.58;3.45;;;;;;;13.97;54.54;97371.03;4999605;28;20494;-56
2022/12/29 11:47:33;;;;;;;22.33;4.03;;;;;;;13.93;55.24;97366.81;4998343;28;20126;-56
2022/12/29 11:50:05;;;;;;;24.25;4.30;;;;;;;14.31;60.37;97377.09;4980361;28;20025;-55
2022/12/29 11:52:37;;;;;;;23.42;4.18;;;;;;;14.28;55.53;97370.19;4994224;28;20538;-56
2022/12/29 11:55:07;;;;;;;21.17;3.67;;;;;;;14.05;56.43;97368.22;4995255;28;20931;-57
2022/12/29 11:57:34;;;;;;;25.05;4.30;;;;;;;13.95;55.77;97367.59;4998710;28;20030;-57
2022/12/29 12:00:03;;;;;;;21.08;3.88;;;;;;;14.38;55.07;97368.19;5000665;28;20029;-56
2022/12/29 12:02:32;;;;;;;24.20;4.18;;;;;;;14.27;56.16;97359.75;4997609;28;20042;-57
2022/12/29 12:05:26;;;;;;;23.02;4.18;;;;;;;14.18;54.45;97360.91;4982984;28;20021;-59
2022/12/29 12:08:17;;;;;;;25.92;4.90;;;;;;;14.10;55.50;97361.09;4988387;28;20396;-56
2022/12/29 12:10:48;;;;;;;22.13;4.30;;;;;;;14.40;56.36;97355.91;5000069;28;20550;-56
2022/12/29 12:13:23;;;;;;;20.30;3.33;;;;;;;14.07;55.35;97350.75;5004389;28;20057;-59
2022/12/29 12:16:14;;;;;;;29.48;4.60;;;;;;;14.27;56.12;97357.16;5002584;28;20128;-57
2022/12/29 12:19:04;;;;;;;16.85;3.08;;;;;;;14.11;60.32;97354.97;4995762;28;20138;-56
2022/12/29 12:21:39;;;;;;;24.20;3.90;;;;;;;14.16;63.98;97355.72;4996204;28;20041;-58
2022/12/29 12:24:15;;;;;;;23.27;3.50;;;;;;;14.32;56.88;97350.03;5001688;28;20024;-56
2022/12/29 12:27:08;;;;;;;26.42;4.28;;;;;;;14.21;55.24;97346.88;5000978;28;20760;-57
2022/12/29 12:29:50;;;;;;;22.75;4.15;;;;;;;14.47;54.87;97355.72;5001488;28;20038;-57
2022/12/29 12:32:23;;;;;;;18.15;3.28;;;;;;;14.44;55.75;97349.66;5000265;28;20038;-58
2022/12/29 12:34:49;;;;;;;20.05;3.83;;;;;;;14.33;55.90;97357.00;4998852;28;20467;-58
2022/12/29 12:37:33;;;;;;;18.23;3.25;;;;;;;14.37;55.56;97352.53;4999502;28;20144;-58
2022/12/29 12:40:18;;;;;;;34.10;4.45;;;;;;;16.35;100.00;97352.25;5000640;28;20030;-55
2022/12/29 12:43:05;;;;;;;30.52;4.47;;;;;;;16.79;69.72;97353.25;4992800;28;20196;-54
2022/12/29 12:46:00;;;;;;;28.30;4.90;;;;;;;17.04;54.36;97350.53;4995361;28;20224;-56
2022/12/29 12:49:01;;;;;;;27.75;4.50;;;;;;;18.32;50.70;97337.31;4999145;28;20017;-55
2022/12/29 12:51:51;;;;;;;24.30;4.25;;;;;;;17.99;48.52;97345.75;4994610;28;20096;-56
2022/12/29 12:55:01;;;;;;;27.50;4.55;;;;;;;18.09;47.73;97346.25;4993302;28;20030;-56
2022/12/29 12:57:30;;;;;;;21.70;3.85;;;;;;;17.99;46.98;97355.41;4994919;28;20066;-57
2022/12/29 13:00:10;;;;;;;22.13;4.00;;;;;;;18.06;47.70;97357.72;4999648;28;20029;-59
2022/12/29 13:02:57;;;;;;;26.65;4.32;;;;;;;18.07;47.08;97342.78;4995081;28;20181;-56
2022/12/29 13:05:44;;;;;;;23.08;4.22;;;;;;;17.92;46.85;97341.66;4995793;28;20056;-55
2022/12/29 13:08:25;;;;;;;21.85;3.88;;;;;;;18.12;46.01;97346.09;4970486;28;20057;-58
2022/12/29 13:11:13;;;;;;;31.05;5.10;;;;;;;18.21;45.74;97350.09;4992643;28;20047;-55